x

South Brooks (46132) Wave Buoy

9:00pm - Sun 19th Nov 2017 All times are PST. -8 hours from GMT.

  • Sig Wave height 10.2ft
  • Peak Period 10s
  • Wind
    13mph, 18mph gusts
  • Sea Temp 51°f
  • Air Temp 47°f
  • Sea Pressure 1000.3mb
  • South Brooks
  • South Brooks

More Historic Weather Station data

Upgrade to MSW Pro to gain access to the past 30 days of data for over 8000 Wavebouys and Weather Stations around the globe.

Join

Comparision Forecast

View Surf forecast
   
Sun 11/19 9:00pm 10ft 10s 13 18 mph 1000.3mb 51f 47f
8:00pm 10ft 10s 13 18 mph 1000mb 51f 47f
7:00pm 10ft 10s 13 18 mph 999.9mb 51f 47f
6:00pm 10ft 12s 13 18 mph 999.6mb 51f 48f
5:00pm 10.5ft 10s 13 18 mph 999.4mb 51f 48f
4:00pm 11ft 11s 13 18 mph 999.3mb 51f 48f
3:00pm 11ft 10s 13 16 mph 999.4mb 51f 48f
2:00pm 11ft 11s 13 18 mph 999.6mb 51f 48f
1:00pm 12ft 10s 13 18 mph 1000mb 51f 48f
12:00pm 12ft 10s 13 18 mph 1000.1mb 51f 48f
11:00am 12ft 10s 16 20 mph 1000.5mb 51f 47f
10:00am 13ft 10s 11 13 mph 1000.6mb 51f 49f
9:00am 14ft 10s 11 13 mph 1000.9mb 51f 49f
8:00am 13ft 11s 13 16 mph 1001mb 51f 49f
7:00am 14.5ft 10s 16 20 mph 1001.2mb 51f 49f
6:00am 15ft 10s 25 34 mph 1000.7mb 51f 51f
5:00am 15ft 11s 25 31 mph 1001.2mb 51f 51f
4:00am 15ft 10s 20 27 mph 1001.6mb 51f 52f
3:00am 17ft 11s 22 29 mph 1001.8mb 51f 52f
2:00am 16.5ft 10s 25 34 mph 1002.6mb 51f 53f
1:00am 16.5ft 10s 31 38 mph 1002.5mb 51f 53f
12:00am 16.5ft 11s 34 40 mph 1002.7mb 51f 53f
Sat 11/18 11:00pm 15.5ft 10s 31 40 mph 1003.9mb 51f 53f
10:00pm 16ft 10s 29 36 mph 1004.8mb 51f 53f
9:00pm 14ft 9s 31 45 mph 1005mb 51f 52f
8:00pm 14ft 9s 29 38 mph 1005.7mb 51f 52f
7:00pm 14ft 9s 29 38 mph 1006.7mb 51f 52f
6:00pm 13ft 9s 31 36 mph 1007.4mb 51f 52f
5:00pm 12.5ft 8s 31 40 mph 1008.3mb 51f 51f
4:00pm 12.5ft 8s 31 40 mph 1009mb 51f 51f
3:00pm 11.5ft 7s 31 38 mph 1009.9mb 51f 51f
2:00pm 12ft 11s 31 38 mph 1010.9mb 51f 51f
1:00pm 11ft 10s 29 36 mph 1011.9mb 51f 51f
12:00pm 11ft 10s 27 34 mph 1013.1mb 50f 51f
11:00am 11ft 10s 27 34 mph 1013.7mb 50f 52f
10:00am 10ft 9s 27 34 mph 1014.4mb 50f 52f
9:00am 10ft 9s 27 34 mph 1015.1mb 50f 52f
8:00am 9ft 8s 27 31 mph 1015.2mb 50f 51f
7:00am 8ft 8s 25 34 mph 1015.5mb 51f 51f
6:00am 8ft 7s 22 29 mph 1016.1mb 51f 51f
5:00am 8ft 8s 22 27 mph 1016.6mb 51f 50f
4:00am 8ft 8s 22 27 mph 1016.9mb 51f 50f
3:00am 7.5ft 8s 25 29 mph 1017.5mb 51f 51f
2:00am 7ft 8s 22 27 mph 1017.7mb 51f 51f
1:00am 7ft 7s 22 29 mph 1017.7mb 50f 51f
12:00am 6ft 8s 25 31 mph 1017.8mb 50f 51f
Fri 11/17 11:00pm 6ft 6s 22 27 mph 1018.1mb 50f 50f
10:00pm 5ft 8s 22 25 mph 1018.2mb 50f 50f
9:00pm 5ft 8s 20 25 mph 1018.3mb 50f 50f
8:00pm 4.5ft 7s 20 25 mph 1018.1mb 50f 50f
7:00pm 4.5ft 7s 18 22 mph 1017.9mb 50f 49f
6:00pm 4.5ft 8s 18 22 mph 1017.7mb 50f 49f
5:00pm 5ft 8s 18 25 mph 1017.8mb 50f 48f
4:00pm 4.5ft 8s 18 22 mph 1017.5mb 50f 49f
3:00pm 4.5ft 8s 16 20 mph 1017.4mb 50f 48f
2:00pm 5ft 8s 16 20 mph 1017.1mb 50f 48f
1:00pm 4.5ft 8s 13 18 mph 1017mb 50f 48f
12:00pm 5ft 8s 9 11 mph 1016.9mb 51f 47f
11:00am 5ft 8s 4 7 mph 1016.4mb 50f 47f
10:00am 5ft 8s 7 9 mph 1015.6mb 50f 46f
9:00am 6ft 7s 4 7 mph 1014.9mb 50f 45f
8:00am 6ft 8s 4 7 mph 1014.2mb 50f 45f
7:00am 5.5ft 10s 7 11 mph 1013.1mb 50f 46f
6:00am 5.5ft 8s 11 13 mph 1012.2mb 50f 46f
5:00am 6ft 9s 16 20 mph 1011.4mb 50f 46f
4:00am 6ft 7s 9 11 mph 1010.8mb 50f 45f
3:00am 5.5ft 8s 13 16 mph 1010.1mb 51f 46f
2:00am 5.5ft 8s 11 13 mph 1009.2mb 51f 45f
1:00am 6ft 8s 11 20 mph 1008.4mb 50f 44f
12:00am 5.5ft 9s 13 18 mph 1007.2mb 50f 44f
Thu 11/16 11:00pm 6ft 10s 20 25 mph 1006.3mb 50f 44f
10:00pm 6ft 8s 13 18 mph 1005.7mb 50f 44f
9:00pm 6ft 8s 16 18 mph 1004.9mb 51f 45f
8:00pm 6ft 8s 16 20 mph 1004.3mb 51f 46f
7:00pm 5.5ft 9s 7 11 mph 1003.8mb 51f 45f
6:00pm 6.5ft 8s 4 9 mph 1003.4mb 50f 46f
5:00pm 5.5ft 9s 2 4 mph 1003.2mb 50f 44f
4:00pm 6ft 8s 4 7 mph 1002.9mb 51f 44f
3:00pm 6ft 9s 4 7 mph 1002.3mb 51f 45f
2:00pm 6ft 10s 2 4 mph 1001.9mb 50f 46f
1:00pm 6.5ft 8s 4 4 mph 1001.5mb 50f 44f
12:00pm 6ft 9s 11 13 mph 1000.9mb 51f 44f
11:00am 6.5ft 9s 11 16 mph 1000.6mb 51f 45f
10:00am 7ft 9s 11 18 mph 1000mb 51f 45f
9:00am 6.5ft 10s 11 22 mph 999.3mb 50f 44f
8:00am 7ft 10s 13 16 mph 998.7mb 50f 45f
7:00am 7ft 8s 13 18 mph 998.2mb 50f 46f